createdAt,value
2023-04-15T00:00:37.469Z,60.16
2023-04-15T00:03:04.280Z,60.21
2023-04-15T00:05:31.057Z,61.59
2023-04-15T00:07:57.453Z,61.26
2023-04-15T00:10:23.882Z,60.32
2023-04-15T00:12:53.200Z,60.24
2023-04-15T00:15:19.598Z,62.11
2023-04-15T00:17:46.043Z,63.86
2023-04-15T00:20:12.444Z,63.11
2023-04-15T00:22:38.827Z,62.43
2023-04-15T00:25:05.236Z,61.67
2023-04-15T00:27:31.701Z,61.28
2023-04-15T00:29:58.142Z,59.99
2023-04-15T00:32:24.694Z,60.15
2023-04-15T00:34:51.135Z,61.34
2023-04-15T00:37:17.505Z,61.59
2023-04-15T00:39:46.935Z,60.93
2023-04-15T00:42:13.307Z,61.44
2023-04-15T00:44:39.705Z,61.81
2023-04-15T00:47:06.079Z,61.31
2023-04-15T00:49:32.459Z,61.01
2023-04-15T00:51:58.922Z,60.29
2023-04-15T00:54:25.295Z,60.85
2023-04-15T00:56:51.719Z,61.24
2023-04-15T00:59:18.165Z,61.29
2023-04-15T01:01:44.584Z,60.46
2023-04-15T01:04:11.243Z,60.00
2023-04-15T01:06:37.700Z,61.59
2023-04-15T01:09:04.084Z,63.04
2023-04-15T01:11:30.462Z,63.42
2023-04-15T01:13:56.861Z,62.94
2023-04-15T01:16:23.276Z,64.20
2023-04-15T01:18:49.668Z,63.83
2023-04-15T01:21:16.049Z,64.41
2023-04-15T01:23:42.483Z,64.99
2023-04-15T01:26:08.891Z,65.36
2023-04-15T01:28:35.291Z,65.07
2023-04-15T01:31:01.685Z,64.40
2023-04-15T01:33:28.255Z,65.24
2023-04-15T01:35:54.650Z,64.59
2023-04-15T01:38:21.009Z,63.75
2023-04-15T01:40:47.410Z,63.20
2023-04-15T01:43:15.839Z,62.87
2023-04-15T01:45:42.233Z,62.41
2023-04-15T01:48:08.633Z,61.73
2023-04-15T01:50:35.010Z,61.72
2023-04-15T01:53:01.388Z,61.03
2023-04-15T01:55:27.805Z,60.07
2023-04-15T01:57:54.184Z,60.18
2023-04-15T02:00:20.577Z,60.19
2023-04-15T02:02:47.041Z,59.98
2023-04-15T02:05:13.466Z,60.06
2023-04-15T02:07:39.869Z,60.47
2023-04-15T02:10:06.262Z,60.58
2023-04-15T02:12:32.636Z,60.22
2023-04-15T02:14:58.996Z,60.23
2023-04-15T02:17:25.496Z,60.82
2023-04-15T02:19:51.879Z,60.56
2023-04-15T02:22:18.287Z,59.31
2023-04-15T02:24:44.741Z,59.21
2023-04-15T02:27:11.102Z,58.65
2023-04-15T02:29:37.504Z,59.10
2023-04-15T02:32:03.933Z,58.50
2023-04-15T02:34:30.321Z,59.60
2023-04-15T02:36:56.692Z,59.86
2023-04-15T02:39:23.093Z,59.99
2023-04-15T02:41:49.469Z,59.66
2023-04-15T02:44:15.891Z,59.80
2023-04-15T02:46:42.323Z,60.01
2023-04-15T02:49:11.566Z,59.66
2023-04-15T02:51:37.976Z,59.35
2023-04-15T02:54:04.356Z,59.52
2023-04-15T02:56:30.789Z,59.12
2023-04-15T02:58:57.167Z,59.02
2023-04-15T03:01:23.598Z,58.55
2023-04-15T03:03:50.195Z,58.28
2023-04-15T03:06:16.611Z,58.97
2023-04-15T03:08:42.983Z,58.83
2023-04-15T03:11:09.409Z,58.60
2023-04-15T03:13:35.971Z,58.89
2023-04-15T03:16:02.492Z,58.85
2023-04-15T03:18:28.952Z,59.02
2023-04-15T03:20:55.320Z,58.64
2023-04-15T03:23:21.756Z,58.51
2023-04-15T03:25:48.209Z,58.25
2023-04-15T03:28:17.018Z,58.29
2023-04-15T03:30:43.727Z,58.90
2023-04-15T03:33:13.170Z,59.01
2023-04-15T03:35:39.567Z,59.79
2023-04-15T03:38:06.057Z,60.02
2023-04-15T03:40:32.450Z,60.18
2023-04-15T03:43:01.622Z,60.94
2023-04-15T03:45:28.124Z,60.22
2023-04-15T03:48:00.593Z,59.84
2023-04-15T03:50:39.741Z,59.82
2023-04-15T03:53:06.159Z,59.75
2023-04-15T03:55:32.575Z,58.90
2023-04-15T03:57:58.966Z,58.53
2023-04-15T04:00:25.312Z,58.88
2023-04-15T04:02:51.793Z,59.74
2023-04-15T04:05:18.247Z,59.86
2023-04-15T04:07:44.619Z,60.71
2023-04-15T04:10:10.985Z,60.33
2023-04-15T04:12:37.366Z,60.25
2023-04-15T04:15:03.769Z,61.28
2023-04-15T04:17:30.204Z,61.05
2023-04-15T04:19:56.604Z,60.27
2023-04-15T04:22:22.983Z,60.26
2023-04-15T04:24:49.348Z,59.56
2023-04-15T04:27:15.768Z,60.11
2023-04-15T04:29:42.141Z,59.96
2023-04-15T04:32:08.632Z,60.50
2023-04-15T04:34:35.071Z,61.11
2023-04-15T04:37:01.537Z,60.95
2023-04-15T04:39:27.986Z,62.04
2023-04-15T04:41:54.402Z,62.44
2023-04-15T04:44:20.803Z,61.14
2023-04-15T04:46:47.175Z,61.05
2023-04-15T04:49:13.566Z,61.15
2023-04-15T04:51:39.977Z,60.52
2023-04-15T04:54:06.343Z,62.50
2023-04-15T04:56:32.721Z,61.95
2023-04-15T04:58:59.216Z,62.76
2023-04-15T05:01:25.907Z,62.23
2023-04-15T05:03:52.375Z,62.17
2023-04-15T05:06:18.798Z,62.23
2023-04-15T05:08:45.147Z,62.26
2023-04-15T05:11:11.572Z,61.46
2023-04-15T05:13:37.965Z,61.18
2023-04-15T05:16:04.439Z,61.34
2023-04-15T05:18:30.964Z,62.27
2023-04-15T05:20:57.359Z,62.53
2023-04-15T05:23:23.721Z,63.63
2023-04-15T05:25:50.096Z,64.79
2023-04-15T05:28:16.505Z,65.29
2023-04-15T05:30:42.954Z,63.44
2023-04-15T05:33:09.360Z,65.72
2023-04-15T05:35:35.811Z,68.30
2023-04-15T05:38:02.228Z,66.75
2023-04-15T05:40:28.595Z,67.89
2023-04-15T05:42:55.010Z,68.13
2023-04-15T05:45:21.381Z,68.16
2023-04-15T05:47:47.793Z,67.42
2023-04-15T05:50:14.288Z,66.46
2023-04-15T05:52:40.851Z,65.75
2023-04-15T05:55:07.217Z,66.82
2023-04-15T05:57:33.655Z,68.33
2023-04-15T06:00:00.045Z,69.12
2023-04-15T06:02:26.595Z,68.83
2023-04-15T06:04:53.244Z,68.11
2023-04-15T06:07:19.694Z,68.50
2023-04-15T06:09:46.060Z,69.59
2023-04-15T06:12:12.476Z,69.79
2023-04-15T06:14:38.871Z,70.82
2023-04-15T06:17:05.278Z,69.83
2023-04-15T06:19:31.684Z,68.67
2023-04-15T06:21:58.157Z,69.00
2023-04-15T06:24:24.670Z,69.70
2023-04-15T06:26:51.200Z,69.31
2023-04-15T06:29:17.650Z,68.47
2023-04-15T06:31:44.109Z,68.88
2023-04-15T06:34:10.503Z,67.53
2023-04-15T06:36:36.893Z,67.99
2023-04-15T06:39:03.593Z,67.25
2023-04-15T06:41:30.119Z,66.74
2023-04-15T06:43:56.539Z,67.01
2023-04-15T06:46:22.926Z,66.93
2023-04-15T06:48:49.530Z,66.83
2023-04-15T06:51:15.911Z,66.13
2023-04-15T06:53:42.290Z,66.13
2023-04-15T06:56:08.701Z,65.11
2023-04-15T06:58:35.161Z,64.44
2023-04-15T07:01:01.588Z,64.02
2023-04-15T07:03:28.210Z,63.78
2023-04-15T07:05:54.561Z,64.96
2023-04-15T07:08:20.952Z,64.36
2023-04-15T07:10:47.368Z,63.31
2023-04-15T07:13:14.074Z,63.42
2023-04-15T07:15:40.697Z,63.85
2023-04-15T07:18:07.119Z,66.02
2023-04-15T07:20:33.504Z,66.73
2023-04-15T07:22:59.894Z,67.06
2023-04-15T07:25:26.300Z,67.51
2023-04-15T07:27:52.684Z,68.70
2023-04-15T07:30:19.294Z,68.09
2023-04-15T07:32:45.764Z,68.78
2023-04-15T07:35:12.169Z,68.47
2023-04-15T07:37:38.559Z,68.09
2023-04-15T07:40:04.970Z,67.77
2023-04-15T07:42:31.345Z,68.99
2023-04-15T07:44:57.710Z,68.32
2023-04-15T07:47:24.142Z,68.42
2023-04-15T07:49:50.532Z,67.94
2023-04-15T07:52:16.916Z,68.15
2023-04-15T07:54:43.311Z,67.39
2023-04-15T07:57:09.720Z,67.54
2023-04-15T07:59:36.381Z,67.92
2023-04-15T08:02:02.777Z,67.19
2023-04-15T08:04:29.689Z,66.12
2023-04-15T08:06:56.194Z,65.52
2023-04-15T08:09:22.598Z,65.32
2023-04-15T08:11:49.166Z,66.05
2023-04-15T08:14:15.640Z,65.89
2023-04-15T08:16:41.997Z,65.06
2023-04-15T08:19:08.407Z,64.81
2023-04-15T08:21:34.756Z,65.13
2023-04-15T08:24:01.402Z,64.18
2023-04-15T08:26:28.075Z,64.25
2023-04-15T08:28:54.463Z,62.26
2023-04-15T08:31:20.914Z,62.23
2023-04-15T08:33:47.302Z,62.44
2023-04-15T08:36:13.673Z,61.74
2023-04-15T08:38:40.145Z,61.18
2023-04-15T08:41:06.635Z,60.37
2023-04-15T08:43:33.124Z,61.01
2023-04-15T08:45:59.503Z,60.96
2023-04-15T08:48:25.880Z,60.38
2023-04-15T08:50:52.329Z,58.73
2023-04-15T08:53:18.826Z,59.10
2023-04-15T08:55:45.465Z,58.84
2023-04-15T08:58:11.952Z,57.81
2023-04-15T09:00:38.420Z,58.57
2023-04-15T09:03:04.958Z,58.19
2023-04-15T09:05:31.577Z,58.98
2023-04-15T09:07:58.023Z,59.12
2023-04-15T09:10:24.519Z,58.05
2023-04-15T09:12:50.876Z,56.93
2023-04-15T09:15:17.258Z,58.04
2023-04-15T09:17:43.751Z,57.42
2023-04-15T09:20:10.244Z,57.34
2023-04-15T09:22:36.698Z,58.05
2023-04-15T09:25:03.222Z,58.59
2023-04-15T09:27:29.648Z,58.24
2023-04-15T09:29:56.015Z,56.26
2023-04-15T09:32:22.438Z,55.83
2023-04-15T09:34:48.834Z,54.77
2023-04-15T09:37:24.595Z,54.66
2023-04-15T09:39:57.885Z,54.50
2023-04-15T09:42:24.562Z,54.29
2023-04-15T09:44:51.074Z,52.77
2023-04-15T09:47:17.656Z,51.42
2023-04-15T09:49:44.084Z,53.44
2023-04-15T09:52:10.500Z,52.54
2023-04-15T09:54:37.013Z,52.94
2023-04-15T09:57:03.401Z,50.27
2023-04-15T09:59:29.811Z,49.45
2023-04-15T10:01:56.210Z,49.58
2023-04-15T10:04:24.216Z,50.96
2023-04-15T10:06:50.694Z,51.14
2023-04-15T10:09:17.053Z,52.97
2023-04-15T10:11:43.412Z,52.50
2023-04-15T10:14:09.775Z,51.71
2023-04-15T10:16:36.153Z,50.22
2023-04-15T10:19:02.580Z,49.86
2023-04-15T10:21:28.974Z,48.34
2023-04-15T10:23:55.373Z,48.04
2023-04-15T10:26:21.900Z,48.23
2023-04-15T10:28:48.385Z,48.03
2023-04-15T10:31:14.758Z,48.40
2023-04-15T10:33:41.166Z,47.98
2023-04-15T10:36:07.603Z,48.24
2023-04-15T10:38:34.084Z,47.81
2023-04-15T10:41:00.804Z,46.98
2023-04-15T10:43:27.192Z,47.38
2023-04-15T10:45:53.663Z,48.66
2023-04-15T10:48:20.281Z,47.83
2023-04-15T10:50:46.691Z,48.31
2023-04-15T10:53:13.255Z,48.80
2023-04-15T10:55:39.859Z,47.89
2023-04-15T10:58:06.445Z,48.27
2023-04-15T11:00:32.986Z,48.86
2023-04-15T11:02:59.499Z,47.31
2023-04-15T11:05:26.017Z,48.12
2023-04-15T11:07:52.421Z,48.17
2023-04-15T11:10:18.781Z,46.98
2023-04-15T11:12:45.142Z,47.79
2023-04-15T11:15:11.551Z,49.90
2023-04-15T11:17:38.058Z,49.27
2023-04-15T11:20:04.557Z,50.02
2023-04-15T11:22:31.062Z,48.66
2023-04-15T11:24:57.440Z,49.37
2023-04-15T11:27:23.838Z,48.62
2023-04-15T11:29:50.355Z,48.10
2023-04-15T11:32:16.888Z,48.79
2023-04-15T11:34:43.338Z,49.75
2023-04-15T11:37:09.853Z,50.12
2023-04-15T11:39:36.391Z,49.94
2023-04-15T11:42:02.749Z,49.26
2023-04-15T11:44:29.180Z,48.25
2023-04-15T11:46:55.700Z,48.16
2023-04-15T11:49:22.123Z,48.91
2023-04-15T11:51:48.570Z,47.46
2023-04-15T11:54:15.042Z,47.59
2023-04-15T11:56:41.838Z,47.89
2023-04-15T11:59:08.202Z,47.53
2023-04-15T12:01:34.701Z,47.52
2023-04-15T12:04:01.237Z,47.42
2023-04-15T12:06:27.765Z,46.41
2023-04-15T12:08:54.215Z,44.96
2023-04-15T12:11:20.645Z,44.73
2023-04-15T12:13:47.077Z,44.82
2023-04-15T12:16:21.006Z,46.43
2023-04-15T12:18:47.499Z,45.63
2023-04-15T12:21:14.052Z,47.52
2023-04-15T12:23:40.618Z,48.29
2023-04-15T12:26:07.102Z,45.51
2023-04-15T12:28:33.459Z,46.47
2023-04-15T12:31:00.059Z,46.17
2023-04-15T12:33:26.457Z,45.61
2023-04-15T12:35:53.010Z,44.94
2023-04-15T12:38:19.640Z,45.73
2023-04-15T12:40:45.988Z,45.55
2023-04-15T12:43:12.381Z,46.38
2023-04-15T12:45:38.795Z,46.85
2023-04-15T12:48:05.232Z,46.71
2023-04-15T12:50:31.638Z,46.86
2023-04-15T12:52:57.998Z,45.40
2023-04-15T12:55:24.444Z,45.00
2023-04-15T12:57:50.892Z,44.93
2023-04-15T13:00:17.292Z,43.99
2023-04-15T13:02:43.733Z,43.63
2023-04-15T13:05:10.190Z,44.53
2023-04-15T13:07:36.650Z,44.15
2023-04-15T13:10:03.020Z,45.03
2023-04-15T13:12:29.689Z,43.43
2023-04-15T13:14:56.086Z,43.88
2023-04-15T13:17:22.532Z,44.08
2023-04-15T13:19:49.049Z,44.13
2023-04-15T13:22:15.493Z,44.08
2023-04-15T13:24:41.867Z,43.51
2023-04-15T13:27:08.246Z,42.92
2023-04-15T13:29:34.596Z,41.78
2023-04-15T13:32:01.027Z,41.42
2023-04-15T13:34:27.547Z,42.40
2023-04-15T13:36:53.936Z,40.50
2023-04-15T13:39:20.374Z,41.49
2023-04-15T13:41:46.731Z,40.50
2023-04-15T13:44:13.171Z,40.10
2023-04-15T13:46:39.737Z,40.12
2023-04-15T13:49:06.135Z,41.41
2023-04-15T13:51:32.554Z,40.33
2023-04-15T13:53:58.899Z,39.36
2023-04-15T13:56:25.319Z,40.31
2023-04-15T13:58:51.762Z,41.89
2023-04-15T14:01:18.140Z,41.93
2023-04-15T14:03:44.823Z,40.47
2023-04-15T14:06:11.385Z,40.09
2023-04-15T14:08:37.759Z,39.53
2023-04-15T14:11:04.155Z,40.00
2023-04-15T14:13:30.525Z,38.67
2023-04-15T14:15:56.900Z,41.17
2023-04-15T14:18:23.300Z,41.27
2023-04-15T14:20:49.711Z,42.30
2023-04-15T14:23:16.119Z,41.56
2023-04-15T14:25:42.516Z,43.10
2023-04-15T14:28:08.895Z,42.09
2023-04-15T14:30:35.388Z,44.77
2023-04-15T14:33:01.930Z,45.30
2023-04-15T14:35:28.365Z,44.91
2023-04-15T14:37:54.752Z,44.27
2023-04-15T14:40:21.176Z,44.24
2023-04-15T14:42:47.677Z,42.89
2023-04-15T14:45:14.079Z,42.95
2023-04-15T14:47:40.756Z,41.97
2023-04-15T14:50:07.155Z,44.98
2023-04-15T14:52:33.540Z,43.80
2023-04-15T14:55:00.011Z,44.23
2023-04-15T14:57:26.718Z,42.95
2023-04-15T14:59:53.142Z,42.52
2023-04-15T15:02:37.288Z,42.05
2023-04-15T15:05:04.605Z,41.98
2023-04-15T15:07:31.283Z,42.33
2023-04-15T15:09:57.637Z,42.25
2023-04-15T15:12:24.015Z,42.65
2023-04-15T15:14:50.379Z,43.42
2023-04-15T15:17:16.780Z,43.60
2023-04-15T15:19:43.162Z,43.95
2023-04-15T15:22:09.589Z,43.85
2023-04-15T15:24:36.189Z,46.34
2023-04-15T15:27:02.691Z,47.01
2023-04-15T15:29:29.071Z,45.81
2023-04-15T15:31:55.486Z,44.78
2023-04-15T15:34:21.899Z,44.18
2023-04-15T15:36:48.276Z,44.04
2023-04-15T15:39:14.665Z,45.24
2023-04-15T15:41:41.019Z,46.32
2023-04-15T15:44:07.402Z,46.17
2023-04-15T15:46:33.855Z,45.55
2023-04-15T15:49:00.455Z,45.08
2023-04-15T15:51:26.887Z,44.50
2023-04-15T15:53:53.347Z,44.89
2023-04-15T15:56:19.722Z,44.32
2023-04-15T15:58:46.092Z,44.94
2023-04-15T16:01:12.580Z,45.13
2023-04-15T16:03:39.165Z,45.15
2023-04-15T16:06:05.625Z,46.03
2023-04-15T16:08:32.040Z,46.59
2023-04-15T16:10:58.620Z,46.43
2023-04-15T16:13:25.057Z,43.82
2023-04-15T16:15:51.470Z,41.87
2023-04-15T16:18:17.920Z,40.98
2023-04-15T16:20:44.290Z,43.01
2023-04-15T16:23:10.752Z,44.86
2023-04-15T16:25:37.368Z,46.69
2023-04-15T16:28:14.760Z,45.61
2023-04-15T16:30:45.526Z,45.75
2023-04-15T16:33:15.345Z,45.34
2023-04-15T16:35:41.938Z,45.55
2023-04-15T16:38:08.575Z,45.25
2023-04-15T16:40:35.120Z,45.54
2023-04-15T16:43:01.928Z,45.95
2023-04-15T16:45:28.493Z,46.52
2023-04-15T16:47:55.072Z,45.71
2023-04-15T16:50:21.719Z,45.22
2023-04-15T16:52:48.191Z,45.58
2023-04-15T16:55:14.706Z,46.43
2023-04-15T16:58:01.596Z,45.92
2023-04-15T17:00:28.347Z,47.84
2023-04-15T17:02:54.858Z,49.00
2023-04-15T17:05:21.356Z,48.54
2023-04-15T17:07:48.480Z,49.16
2023-04-15T17:10:15.121Z,48.89
2023-04-15T17:12:41.734Z,47.62
2023-04-15T17:15:08.541Z,48.62
2023-04-15T17:17:38.010Z,50.40
2023-04-15T17:20:04.603Z,50.51
2023-04-15T17:22:31.062Z,50.56
2023-04-15T17:24:58.898Z,51.97
2023-04-15T17:27:25.425Z,52.29
2023-04-15T17:29:51.924Z,52.69
2023-04-15T17:32:29.116Z,52.48
2023-04-15T17:34:55.716Z,53.23
2023-04-15T17:37:22.173Z,53.69
2023-04-15T17:39:48.730Z,52.41
2023-04-15T17:42:15.397Z,53.74
2023-04-15T17:44:44.182Z,54.18
2023-04-15T17:47:10.722Z,53.85
2023-04-15T17:49:37.415Z,52.50
2023-04-15T17:52:03.838Z,52.53
2023-04-15T17:54:30.333Z,52.53
2023-04-15T17:56:56.772Z,51.99
2023-04-15T17:59:23.236Z,51.95
2023-04-15T18:01:49.722Z,51.33
2023-04-15T18:04:19.340Z,51.50
2023-04-15T18:06:45.820Z,52.31
2023-04-15T18:09:12.198Z,52.27
2023-04-15T18:11:38.647Z,53.25
2023-04-15T18:14:05.205Z,53.66
2023-04-15T18:16:31.854Z,53.21
2023-04-15T18:18:58.717Z,53.24
2023-04-15T18:21:25.100Z,52.93
2023-04-15T18:23:51.482Z,52.60
2023-04-15T18:26:17.946Z,52.32
2023-04-15T18:28:44.375Z,51.39
2023-04-15T18:31:10.813Z,52.12
2023-04-15T18:33:37.289Z,54.43
2023-04-15T18:36:03.756Z,55.50
2023-04-15T18:38:30.160Z,55.18
2023-04-15T18:40:56.591Z,56.20
2023-04-15T18:43:23.011Z,57.33
2023-04-15T18:45:49.507Z,58.15
2023-04-15T18:48:15.994Z,58.08
2023-04-15T18:50:42.402Z,58.52
2023-04-15T18:53:08.818Z,60.36
2023-04-15T18:55:35.304Z,61.29
2023-04-15T18:58:06.587Z,62.20
2023-04-15T19:00:35.655Z,61.85
2023-04-15T19:03:02.250Z,62.29
2023-04-15T19:05:28.805Z,62.20
2023-04-15T19:07:55.355Z,60.99
2023-04-15T19:10:21.985Z,61.13
2023-04-15T19:12:48.353Z,61.66
2023-04-15T19:15:14.760Z,61.28
2023-04-15T19:17:41.246Z,61.47
2023-04-15T19:20:07.709Z,60.11
2023-04-15T19:22:34.128Z,59.63
2023-04-15T19:25:00.576Z,59.05
2023-04-15T19:27:27.003Z,59.17
2023-04-15T19:29:53.405Z,60.16
2023-04-15T19:32:19.874Z,60.06
2023-04-15T19:34:46.257Z,59.74
2023-04-15T19:37:12.708Z,59.51
2023-04-15T19:39:39.069Z,59.85
2023-04-15T19:42:05.443Z,59.78
2023-04-15T19:44:31.821Z,60.17
2023-04-15T19:46:58.217Z,60.92
2023-04-15T19:49:24.641Z,60.61
2023-04-15T19:51:51.139Z,61.94
2023-04-15T19:54:17.517Z,60.86
2023-04-15T19:56:43.909Z,61.21
2023-04-15T19:59:10.286Z,60.83
2023-04-15T20:01:36.703Z,60.78
2023-04-15T20:04:03.432Z,60.78
2023-04-15T20:06:29.984Z,61.00
2023-04-15T20:08:56.463Z,60.52
2023-04-15T20:11:22.940Z,60.67
2023-04-15T20:13:49.428Z,60.88
2023-04-15T20:16:15.931Z,61.17
2023-04-15T20:18:42.544Z,60.24
2023-04-15T20:21:11.939Z,60.86
2023-04-15T20:23:39.882Z,60.77
2023-04-15T20:26:06.341Z,61.21
2023-04-15T20:28:32.812Z,61.42
2023-04-15T20:30:59.326Z,61.55
2023-04-15T20:33:26.080Z,61.26
2023-04-15T20:35:52.641Z,60.14
2023-04-15T20:38:19.106Z,59.93
2023-04-15T20:40:45.736Z,61.04
2023-04-15T20:43:13.303Z,61.08
2023-04-15T20:45:39.682Z,61.53
2023-04-15T20:48:06.146Z,60.85
2023-04-15T20:50:35.532Z,60.99
2023-04-15T20:53:02.025Z,61.56
2023-04-15T20:55:30.686Z,61.86
2023-04-15T20:58:00.010Z,61.23
2023-04-15T21:00:26.526Z,62.03
2023-04-15T21:02:53.120Z,62.23
2023-04-15T21:05:19.863Z,62.97
2023-04-15T21:07:46.271Z,62.66
2023-04-15T21:10:15.112Z,63.23
2023-04-15T21:12:41.624Z,65.08
2023-04-15T21:15:08.125Z,65.08
2023-04-15T21:17:34.831Z,65.28
2023-04-15T21:20:02.072Z,65.05
2023-04-15T21:22:28.750Z,65.10
2023-04-15T21:24:55.184Z,66.26
2023-04-15T21:27:21.665Z,66.09
2023-04-15T21:29:48.148Z,65.92
2023-04-15T21:32:14.771Z,66.34
2023-04-15T21:34:41.251Z,65.21
2023-04-15T21:37:07.860Z,64.31
2023-04-15T21:39:37.472Z,64.41
2023-04-15T21:42:03.909Z,64.48
2023-04-15T21:44:31.917Z,64.29
2023-04-15T21:46:58.929Z,63.49
2023-04-15T21:49:25.582Z,63.97
2023-04-15T21:51:52.089Z,64.58
2023-04-15T21:54:18.760Z,64.59
2023-04-15T21:56:45.261Z,64.26
2023-04-15T21:59:11.734Z,65.17
2023-04-15T22:01:42.754Z,66.67
2023-04-15T22:04:09.321Z,66.20
2023-04-15T22:06:37.784Z,66.42
2023-04-15T22:09:04.280Z,65.66
2023-04-15T22:11:30.688Z,64.25
2023-04-15T22:13:57.251Z,63.20
2023-04-15T22:16:24.035Z,63.43
2023-04-15T22:18:50.683Z,63.23
2023-04-15T22:21:17.111Z,63.56
2023-04-15T22:23:43.514Z,63.63
2023-04-15T22:26:12.819Z,63.98
2023-04-15T22:28:39.336Z,62.81
2023-04-15T22:31:05.766Z,63.12
2023-04-15T22:33:32.194Z,63.32
2023-04-15T22:36:00.067Z,65.32
2023-04-15T22:38:29.401Z,66.00
2023-04-15T22:40:55.947Z,67.55
2023-04-15T22:43:22.391Z,67.34
2023-04-15T22:45:48.836Z,67.20
2023-04-15T22:48:15.421Z,67.11
2023-04-15T22:50:41.875Z,67.48
2023-04-15T22:53:08.439Z,67.70
2023-04-15T22:55:35.039Z,67.25
2023-04-15T22:58:01.597Z,67.45
2023-04-15T23:00:28.206Z,67.30
2023-04-15T23:02:54.898Z,68.02
2023-04-15T23:05:21.355Z,68.05
2023-04-15T23:07:47.977Z,67.62
2023-04-15T23:10:14.356Z,67.52
2023-04-15T23:12:40.921Z,68.67
2023-04-15T23:15:12.700Z,68.26
2023-04-15T23:17:39.084Z,67.57
2023-04-15T23:20:05.484Z,67.49
2023-04-15T23:22:31.913Z,66.42
2023-04-15T23:24:58.537Z,67.03
2023-04-15T23:27:25.128Z,67.17
2023-04-15T23:29:51.569Z,67.19
2023-04-15T23:32:18.086Z,66.80
2023-04-15T23:34:45.839Z,65.42
2023-04-15T23:37:12.236Z,64.70
2023-04-15T23:39:38.868Z,64.82
2023-04-15T23:42:05.269Z,65.60
2023-04-15T23:44:31.744Z,65.15
2023-04-15T23:46:58.318Z,65.36
2023-04-15T23:49:24.843Z,65.46
2023-04-15T23:51:51.235Z,64.48
2023-04-15T23:54:17.583Z,64.53
2023-04-15T23:56:43.943Z,64.11
2023-04-15T23:59:10.422Z,64.25
